createdAt,value
2018-05-08T00:00:45.221Z,75
2018-05-08T00:01:44.960Z,75
2018-05-08T00:02:44.925Z,75
2018-05-08T00:03:44.880Z,75
2018-05-08T00:04:45.334Z,75
2018-05-08T00:05:45.241Z,75
2018-05-08T00:06:45.281Z,75
2018-05-08T00:07:44.925Z,75
2018-05-08T00:08:45.024Z,75
2018-05-08T00:09:44.923Z,76
2018-05-08T00:10:44.913Z,76
2018-05-08T00:11:44.885Z,76
2018-05-08T00:12:44.933Z,76
2018-05-08T00:13:45.314Z,76
2018-05-08T00:14:44.858Z,76
2018-05-08T00:15:46.009Z,76
2018-05-08T00:16:45.642Z,76
2018-05-08T00:17:45.817Z,76
2018-05-08T00:18:45.793Z,76
2018-05-08T00:19:45.681Z,75
2018-05-08T00:20:45.123Z,75
2018-05-08T00:21:45.080Z,75
2018-05-08T00:22:45.152Z,74
2018-05-08T00:23:45.691Z,74
2018-05-08T00:24:44.875Z,74
2018-05-08T00:25:45.406Z,74
2018-05-08T00:26:45.284Z,74
2018-05-08T00:27:44.963Z,72
2018-05-08T00:28:44.977Z,72
2018-05-08T00:29:44.961Z,72
2018-05-08T00:30:44.958Z,72
2018-05-08T00:31:44.965Z,72
2018-05-08T00:32:44.914Z,73
2018-05-08T00:33:44.973Z,73
2018-05-08T00:34:45.324Z,73
2018-05-08T00:35:45.009Z,73
2018-05-08T00:36:44.995Z,73
2018-05-08T00:37:44.972Z,74
2018-05-08T00:38:44.956Z,74
2018-05-08T00:39:44.913Z,74
2018-05-08T00:40:44.925Z,75
2018-05-08T00:41:44.963Z,75
2018-05-08T00:42:45.248Z,75
2018-05-08T00:43:45.011Z,75
2018-05-08T00:44:44.952Z,75
2018-05-08T00:45:44.907Z,75
2018-05-08T00:46:45.017Z,75
2018-05-08T00:47:45.012Z,76
2018-05-08T00:48:45.256Z,76
2018-05-08T00:49:44.924Z,76
2018-05-08T00:50:44.976Z,77
2018-05-08T00:51:45.294Z,77
2018-05-08T00:52:45.011Z,77
2018-05-08T00:53:44.960Z,78
2018-05-08T00:54:45.055Z,78
2018-05-08T00:55:45.052Z,78
2018-05-08T00:56:45.117Z,78
2018-05-08T00:57:45.045Z,78
2018-05-08T00:58:45.036Z,79
2018-05-08T00:59:45.077Z,79
2018-05-08T01:00:45.018Z,79
2018-05-08T01:01:45.633Z,79
2018-05-08T01:02:45.168Z,79
2018-05-08T01:03:45.124Z,79
2018-05-08T01:04:45.041Z,79
2018-05-08T01:05:45.468Z,79
2018-05-08T01:06:45.156Z,79
2018-05-08T01:07:45.088Z,79
2018-05-08T01:08:45.072Z,79
2018-05-08T01:09:45.043Z,79
2018-05-08T01:10:45.377Z,78
2018-05-08T01:11:45.388Z,78
2018-05-08T01:12:45.087Z,78
2018-05-08T01:13:45.440Z,78
2018-05-08T01:14:45.093Z,78
2018-05-08T01:15:45.189Z,78
2018-05-08T01:16:45.037Z,78
2018-05-08T01:17:45.045Z,78
2018-05-08T01:18:45.141Z,77
2018-05-08T01:19:45.178Z,77
2018-05-08T01:20:45.662Z,78
2018-05-08T01:21:45.444Z,78
2018-05-08T01:22:45.182Z,78
2018-05-08T01:23:45.025Z,78
2018-05-08T01:24:45.124Z,78
2018-05-08T01:25:45.107Z,78
2018-05-08T01:26:45.067Z,78
2018-05-08T01:27:45.391Z,78
2018-05-08T01:28:45.126Z,78
2018-05-08T01:29:45.368Z,78
2018-05-08T01:30:45.419Z,78
2018-05-08T01:31:45.143Z,78
2018-05-08T01:32:45.121Z,78
2018-05-08T01:33:45.253Z,78
2018-05-08T01:34:45.223Z,78
2018-05-08T01:35:45.441Z,78
2018-05-08T01:36:45.369Z,78
2018-05-08T01:37:45.416Z,78
2018-05-08T01:38:45.470Z,79
2018-05-08T01:39:45.215Z,79
2018-05-08T01:40:45.123Z,79
2018-05-08T01:41:45.207Z,79
2018-05-08T01:42:45.306Z,79
2018-05-08T01:43:45.192Z,79
2018-05-08T01:44:45.220Z,79
2018-05-08T01:45:45.432Z,79
2018-05-08T01:46:46.756Z,79
2018-05-08T01:47:45.507Z,79
2018-05-08T01:48:45.770Z,80
2018-05-08T01:49:46.020Z,80
2018-05-08T01:50:45.760Z,80
2018-05-08T01:51:45.370Z,80
2018-05-08T01:52:45.239Z,80
2018-05-08T01:53:45.498Z,80
2018-05-08T01:54:45.488Z,81
2018-05-08T01:55:45.618Z,81
2018-05-08T01:56:45.195Z,81
2018-05-08T01:57:45.550Z,81
2018-05-08T01:58:45.239Z,81
2018-05-08T01:59:45.208Z,80
2018-05-08T02:00:45.176Z,80
2018-05-08T02:01:45.522Z,80
2018-05-08T02:02:45.198Z,80
2018-05-08T02:03:45.482Z,80
2018-05-08T02:04:45.213Z,81
2018-05-08T02:05:45.195Z,81
2018-05-08T02:06:45.261Z,82
2018-05-08T02:07:45.125Z,82
2018-05-08T02:08:45.140Z,82
2018-05-08T02:09:45.514Z,83
2018-05-08T02:10:45.595Z,83
2018-05-08T02:11:45.159Z,83
2018-05-08T02:12:45.151Z,83
2018-05-08T02:13:45.475Z,83
2018-05-08T02:14:45.433Z,83
2018-05-08T02:15:45.189Z,83
2018-05-08T02:16:45.129Z,84
2018-05-08T02:17:45.463Z,84
2018-05-08T02:18:45.227Z,84
2018-05-08T02:19:45.250Z,84
2018-05-08T02:20:45.158Z,84
2018-05-08T02:21:45.250Z,84
2018-05-08T02:22:45.544Z,84
2018-05-08T02:23:45.279Z,84
2018-05-08T02:24:45.234Z,85
2018-05-08T02:25:45.287Z,85
2018-05-08T02:26:45.176Z,85
2018-05-08T02:27:45.254Z,85
2018-05-08T02:28:45.282Z,85
2018-05-08T02:29:45.528Z,85
2018-05-08T02:30:45.197Z,85
2018-05-08T02:31:45.167Z,85
2018-05-08T02:32:45.186Z,85
2018-05-08T02:33:45.233Z,85
2018-05-08T02:34:45.201Z,85
2018-05-08T02:35:45.192Z,85
2018-05-08T02:36:45.182Z,85
2018-05-08T02:37:45.276Z,86
2018-05-08T02:38:45.202Z,86
2018-05-08T02:39:45.567Z,86
2018-05-08T02:40:45.564Z,86
2018-05-08T02:41:45.185Z,86
2018-05-08T02:42:45.226Z,86
2018-05-08T02:43:45.204Z,86
2018-05-08T02:44:45.293Z,86
2018-05-08T02:45:45.221Z,86
2018-05-08T02:46:45.341Z,86
2018-05-08T02:47:45.416Z,86
2018-05-08T02:48:45.198Z,86
2018-05-08T02:49:45.332Z,86
2018-05-08T02:50:45.558Z,86
2018-05-08T02:51:45.244Z,86
2018-05-08T02:52:45.222Z,86
2018-05-08T02:53:45.264Z,86
2018-05-08T02:54:45.383Z,86
2018-05-08T02:55:46.739Z,86
2018-05-08T02:56:45.463Z,86
2018-05-08T02:57:45.967Z,87
2018-05-08T02:58:46.302Z,87
2018-05-08T02:59:45.436Z,87
2018-05-08T03:00:46.153Z,87
2018-05-08T03:01:45.799Z,87
2018-05-08T03:02:45.824Z,87
2018-05-08T03:03:45.952Z,87
2018-05-08T03:04:45.284Z,87
2018-05-08T03:05:45.418Z,87
2018-05-08T03:06:45.231Z,87
2018-05-08T03:07:45.232Z,87
2018-05-08T03:08:45.163Z,87
2018-05-08T03:09:45.568Z,87
2018-05-08T03:10:45.258Z,87
2018-05-08T03:11:45.625Z,87
2018-05-08T03:12:45.389Z,87
2018-05-08T03:13:45.224Z,87
2018-05-08T03:14:45.251Z,87
2018-05-08T03:15:45.229Z,88
2018-05-08T03:16:45.268Z,88
2018-05-08T03:17:45.268Z,88
2018-05-08T03:18:45.216Z,88
2018-05-08T03:19:45.230Z,88
2018-05-08T03:20:45.493Z,88
2018-05-08T03:21:45.514Z,88
2018-05-08T03:22:45.547Z,88
2018-05-08T03:23:45.486Z,88
2018-05-08T03:24:45.292Z,88
2018-05-08T03:25:45.199Z,88
2018-05-08T03:26:45.479Z,88
2018-05-08T03:27:45.229Z,88
2018-05-08T03:28:45.165Z,87
2018-05-08T03:29:45.465Z,87
2018-05-08T03:30:45.566Z,87
2018-05-08T03:31:45.229Z,87
2018-05-08T03:32:45.536Z,87
2018-05-08T03:33:45.285Z,88
2018-05-08T03:34:45.277Z,88
2018-05-08T03:35:45.277Z,88
2018-05-08T03:36:45.587Z,88
2018-05-08T03:37:45.269Z,88
2018-05-08T03:38:45.561Z,88
2018-05-08T03:39:45.246Z,88
2018-05-08T03:40:45.240Z,89
2018-05-08T03:41:46.014Z,89
2018-05-08T03:42:45.418Z,89
2018-05-08T03:43:45.516Z,89
2018-05-08T03:44:45.859Z,89
2018-05-08T03:45:46.600Z,89
2018-05-08T03:46:45.274Z,89
2018-05-08T03:47:45.267Z,89
2018-05-08T03:48:45.260Z,89
2018-05-08T03:49:45.562Z,89
2018-05-08T03:50:45.511Z,89
2018-05-08T03:51:45.266Z,89
2018-05-08T03:52:45.286Z,89
2018-05-08T03:53:45.601Z,90
2018-05-08T03:54:45.285Z,90
2018-05-08T03:55:45.225Z,90
2018-05-08T03:56:45.231Z,90
2018-05-08T03:57:45.235Z,90
2018-05-08T03:58:45.260Z,90
2018-05-08T03:59:45.572Z,90
2018-05-08T04:00:45.549Z,90
2018-05-08T04:01:45.330Z,90
2018-05-08T04:02:45.285Z,90
2018-05-08T04:03:45.593Z,90
2018-05-08T04:04:45.373Z,90
2018-05-08T04:05:45.395Z,90
2018-05-08T04:06:45.302Z,90
2018-05-08T04:07:45.436Z,90
2018-05-08T04:08:45.263Z,90
2018-05-08T04:09:45.286Z,90
2018-05-08T04:10:45.243Z,90
2018-05-08T04:11:45.268Z,91
2018-05-08T04:12:45.292Z,91
2018-05-08T04:13:45.331Z,91
2018-05-08T04:14:45.305Z,91
2018-05-08T04:15:45.608Z,91
2018-05-08T04:16:45.390Z,91
2018-05-08T04:17:45.363Z,91
2018-05-08T04:18:45.639Z,91
2018-05-08T04:19:45.433Z,91
2018-05-08T04:20:45.386Z,91
2018-05-08T04:21:45.631Z,91
2018-05-08T04:22:45.341Z,91
2018-05-08T04:23:45.900Z,90
2018-05-08T04:24:45.673Z,90
2018-05-08T04:25:45.729Z,90
2018-05-08T04:26:45.325Z,90
2018-05-08T04:27:45.362Z,90
2018-05-08T04:28:45.389Z,90
2018-05-08T04:29:45.394Z,90
2018-05-08T04:30:45.688Z,90
2018-05-08T04:31:45.638Z,90
2018-05-08T04:32:45.712Z,90
2018-05-08T04:33:45.387Z,90
2018-05-08T04:34:45.395Z,90
2018-05-08T04:35:45.387Z,90
2018-05-08T04:36:45.430Z,90
2018-05-08T04:37:45.417Z,90
2018-05-08T04:38:45.802Z,90
2018-05-08T04:39:45.363Z,90
2018-05-08T04:40:45.483Z,90
2018-05-08T04:41:45.722Z,89
2018-05-08T04:42:45.657Z,89
2018-05-08T04:43:45.439Z,89
2018-05-08T04:44:45.774Z,88
2018-05-08T04:45:45.389Z,88
2018-05-08T04:46:45.379Z,88
2018-05-08T04:47:45.419Z,88
2018-05-08T04:48:45.360Z,88
2018-05-08T04:49:45.364Z,87
2018-05-08T04:50:45.425Z,87
2018-05-08T04:51:45.483Z,86
2018-05-08T04:52:45.403Z,86
2018-05-08T04:53:46.239Z,86
2018-05-08T04:54:45.640Z,86
2018-05-08T04:55:45.562Z,86
2018-05-08T04:56:45.621Z,86
2018-05-08T04:57:45.821Z,85
2018-05-08T04:58:45.453Z,85
2018-05-08T04:59:45.672Z,84
2018-05-08T05:00:46.176Z,84
2018-05-08T05:01:46.129Z,84
2018-05-08T05:02:45.726Z,84
2018-05-08T05:03:45.582Z,84
2018-05-08T05:04:45.846Z,84
2018-05-08T05:05:45.738Z,84
2018-05-08T05:06:45.524Z,84
2018-05-08T05:07:45.514Z,83
2018-05-08T05:08:45.450Z,83
2018-05-08T05:09:45.745Z,83
2018-05-08T05:10:45.411Z,83
2018-05-08T05:11:45.537Z,83
2018-05-08T05:12:45.408Z,82
2018-05-08T05:13:45.451Z,82
2018-05-08T05:14:45.508Z,81
2018-05-08T05:15:45.600Z,81
2018-05-08T05:16:45.899Z,81
2018-05-08T05:17:45.430Z,80
2018-05-08T05:18:45.388Z,80
2018-05-08T05:19:45.461Z,78
2018-05-08T05:20:45.535Z,78
2018-05-08T05:21:45.770Z,78
2018-05-08T05:22:45.473Z,78
2018-05-08T05:23:45.550Z,78
2018-05-08T05:24:45.446Z,76
2018-05-08T05:25:45.590Z,76
2018-05-08T05:26:45.439Z,76
2018-05-08T05:27:45.511Z,75
2018-05-08T05:28:45.516Z,75
2018-05-08T05:29:46.515Z,75
2018-05-08T05:30:45.541Z,73
2018-05-08T05:31:45.639Z,73
2018-05-08T05:32:45.554Z,70
2018-05-08T05:33:45.545Z,70
2018-05-08T05:34:45.542Z,70
2018-05-08T05:35:45.525Z,69
2018-05-08T05:36:45.557Z,69
2018-05-08T05:37:45.605Z,65
2018-05-08T05:38:45.533Z,65
2018-05-08T05:39:45.552Z,65
2018-05-08T05:40:45.793Z,64
2018-05-08T05:41:45.561Z,64
2018-05-08T05:42:45.556Z,63
2018-05-08T05:43:45.495Z,63
2018-05-08T05:44:45.463Z,63
2018-05-08T05:45:45.469Z,62
2018-05-08T05:46:45.664Z,62
2018-05-08T05:47:45.537Z,60
2018-05-08T05:48:45.801Z,60
2018-05-08T05:49:45.513Z,60
2018-05-08T05:50:45.546Z,60
2018-05-08T05:51:45.546Z,60
2018-05-08T05:52:45.639Z,60
2018-05-08T05:53:45.499Z,60
2018-05-08T05:54:45.464Z,60
2018-05-08T05:55:45.453Z,59
2018-05-08T05:56:45.460Z,59
2018-05-08T05:57:45.780Z,59
2018-05-08T05:58:45.424Z,59
2018-05-08T05:59:45.482Z,59
2018-05-08T06:00:45.759Z,59
2018-05-08T06:01:45.551Z,59
2018-05-08T06:02:45.502Z,59
2018-05-08T06:03:45.564Z,59
2018-05-08T06:04:45.493Z,59
2018-05-08T06:05:45.784Z,58
2018-05-08T06:06:45.513Z,58
2018-05-08T06:07:45.536Z,58
2018-05-08T06:08:45.459Z,59
2018-05-08T06:09:45.830Z,59
2018-05-08T06:10:45.779Z,58
2018-05-08T06:11:45.533Z,58
2018-05-08T06:12:45.575Z,58
2018-05-08T06:13:45.552Z,59
2018-05-08T06:14:45.508Z,59
2018-05-08T06:15:46.221Z,61
2018-05-08T06:16:45.514Z,61
2018-05-08T06:17:45.507Z,61
2018-05-08T06:18:45.497Z,58
2018-05-08T06:19:46.376Z,58
2018-05-08T06:20:45.495Z,58
2018-05-08T06:21:45.531Z,58
2018-05-08T06:22:45.578Z,58
2018-05-08T06:23:45.532Z,56
2018-05-08T06:24:45.535Z,56
2018-05-08T06:25:45.756Z,57
2018-05-08T06:26:45.557Z,57
2018-05-08T06:27:45.545Z,57
2018-05-08T06:28:45.811Z,57
2018-05-08T06:29:45.676Z,57
2018-05-08T06:30:45.519Z,57
2018-05-08T06:31:45.620Z,57
2018-05-08T06:32:45.564Z,57
2018-05-08T06:33:45.532Z,55
2018-05-08T06:34:45.592Z,55
2018-05-08T06:35:46.667Z,55
2018-05-08T06:36:45.537Z,55
2018-05-08T06:37:45.798Z,55
2018-05-08T06:38:45.518Z,55
2018-05-08T06:39:45.595Z,55
2018-05-08T06:40:45.551Z,55
2018-05-08T06:41:45.578Z,55
2018-05-08T06:42:45.568Z,55
2018-05-08T06:43:45.629Z,55
2018-05-08T06:44:45.817Z,55
2018-05-08T06:45:45.610Z,55
2018-05-08T06:46:45.706Z,54
2018-05-08T06:47:45.653Z,54
2018-05-08T06:48:45.887Z,53
2018-05-08T06:49:45.673Z,53
2018-05-08T06:50:45.883Z,53
2018-05-08T06:51:45.633Z,53
2018-05-08T06:52:45.576Z,53
2018-05-08T06:53:45.563Z,53
2018-05-08T06:54:45.583Z,53
2018-05-08T06:55:45.610Z,53
2018-05-08T06:56:45.602Z,53
2018-05-08T06:57:45.603Z,53
2018-05-08T06:58:45.589Z,53
2018-05-08T06:59:45.636Z,54
2018-05-08T07:00:45.575Z,54
2018-05-08T07:01:45.949Z,54
2018-05-08T07:02:47.688Z,54
2018-05-08T07:03:45.937Z,54
2018-05-08T07:04:45.741Z,52
2018-05-08T07:05:45.716Z,52
2018-05-08T07:06:45.790Z,52
2018-05-08T07:07:46.015Z,52
2018-05-08T07:08:45.684Z,52
2018-05-08T07:09:45.634Z,51
2018-05-08T07:10:45.704Z,51
2018-05-08T07:11:45.916Z,51
2018-05-08T07:12:45.905Z,51
2018-05-08T07:13:47.936Z,51
2018-05-08T07:14:46.082Z,51
2018-05-08T07:15:45.843Z,51
2018-05-08T07:16:45.671Z,51
2018-05-08T07:17:45.656Z,51
2018-05-08T07:18:45.729Z,51
2018-05-08T07:19:45.710Z,51
2018-05-08T07:20:45.648Z,51
2018-05-08T07:21:45.691Z,51
2018-05-08T07:22:46.121Z,51
2018-05-08T07:23:45.688Z,51
2018-05-08T07:24:45.732Z,51
2018-05-08T07:25:46.021Z,51
2018-05-08T07:26:45.959Z,50
2018-05-08T07:27:45.688Z,50
2018-05-08T07:28:45.907Z,50
2018-05-08T07:29:45.706Z,52
2018-05-08T07:30:45.672Z,52
2018-05-08T07:31:45.989Z,52
2018-05-08T07:32:45.748Z,50
2018-05-08T07:33:45.729Z,50
2018-05-08T07:34:45.844Z,48
2018-05-08T07:35:45.689Z,48
2018-05-08T07:36:45.959Z,48
2018-05-08T07:37:45.715Z,49
2018-05-08T07:38:46.024Z,49
2018-05-08T07:39:45.727Z,50
2018-05-08T07:40:45.975Z,50
2018-05-08T07:41:46.000Z,50
2018-05-08T07:42:45.706Z,49
2018-05-08T07:43:45.770Z,49
2018-05-08T07:44:45.722Z,50
2018-05-08T07:45:45.774Z,50
2018-05-08T07:46:45.682Z,50
2018-05-08T07:47:45.678Z,50
2018-05-08T07:48:46.018Z,50
2018-05-08T07:49:45.800Z,50
2018-05-08T07:50:46.097Z,50
2018-05-08T07:51:46.142Z,50
2018-05-08T07:52:45.698Z,50
2018-05-08T07:53:46.084Z,50
2018-05-08T07:54:45.660Z,50
2018-05-08T07:55:45.754Z,50
2018-05-08T07:56:45.692Z,50
2018-05-08T07:57:47.746Z,47
2018-05-08T07:58:45.740Z,47
2018-05-08T07:59:45.709Z,47
2018-05-08T08:00:45.716Z,47
2018-05-08T08:01:45.726Z,47
2018-05-08T08:02:45.697Z,48
2018-05-08T08:03:45.766Z,48
2018-05-08T08:04:45.728Z,48
2018-05-08T08:05:45.977Z,48
2018-05-08T08:06:45.982Z,48
2018-05-08T08:07:45.678Z,48
2018-05-08T08:08:45.754Z,48
2018-05-08T08:09:45.717Z,48
2018-05-08T08:10:46.056Z,47
2018-05-08T08:11:45.712Z,47
2018-05-08T08:12:45.778Z,46
2018-05-08T08:13:45.673Z,46
2018-05-08T08:14:45.696Z,46
2018-05-08T08:15:46.665Z,47
2018-05-08T08:16:45.709Z,47
2018-05-08T08:17:45.983Z,45
2018-05-08T08:18:45.700Z,45
2018-05-08T08:19:45.752Z,45
2018-05-08T08:20:45.864Z,45
2018-05-08T08:21:45.749Z,45
2018-05-08T08:22:45.985Z,45
2018-05-08T08:23:46.058Z,45
2018-05-08T08:24:46.034Z,45
2018-05-08T08:25:45.762Z,46
2018-05-08T08:26:45.714Z,46
2018-05-08T08:27:45.761Z,45
2018-05-08T08:28:46.060Z,45
2018-05-08T08:29:46.089Z,45
2018-05-08T08:30:45.814Z,45
2018-05-08T08:31:46.064Z,45
2018-05-08T08:32:45.777Z,45
2018-05-08T08:33:46.043Z,45
2018-05-08T08:34:45.791Z,45
2018-05-08T08:35:45.761Z,44
2018-05-08T08:36:45.770Z,44
2018-05-08T08:37:45.727Z,44
2018-05-08T08:38:46.004Z,44
2018-05-08T08:39:46.076Z,44
2018-05-08T08:40:45.864Z,44
2018-05-08T08:41:45.772Z,44
2018-05-08T08:42:45.772Z,44
2018-05-08T08:43:45.789Z,44
2018-05-08T08:44:45.868Z,44
2018-05-08T08:45:45.848Z,43
2018-05-08T08:46:45.807Z,43
2018-05-08T08:47:45.956Z,43
2018-05-08T08:48:45.804Z,44
2018-05-08T08:49:45.828Z,44
2018-05-08T08:50:45.792Z,43
2018-05-08T08:51:45.822Z,43
2018-05-08T08:52:45.788Z,43
2018-05-08T08:53:45.771Z,44
2018-05-08T08:54:45.909Z,44
2018-05-08T08:55:45.841Z,42
2018-05-08T08:56:45.839Z,42
2018-05-08T08:57:46.182Z,42
2018-05-08T08:58:45.821Z,43
2018-05-08T08:59:46.131Z,43
2018-05-08T09:00:45.786Z,43
2018-05-08T09:01:46.166Z,42
2018-05-08T09:02:45.826Z,42
2018-05-08T09:03:45.831Z,42
2018-05-08T09:04:46.212Z,42
2018-05-08T09:05:45.845Z,42
2018-05-08T09:06:45.863Z,41
2018-05-08T09:07:45.879Z,41
2018-05-08T09:08:45.861Z,41
2018-05-08T09:09:45.876Z,41
2018-05-08T09:10:45.839Z,41
2018-05-08T09:11:46.215Z,40
2018-05-08T09:12:46.145Z,40
2018-05-08T09:13:45.858Z,40
2018-05-08T09:14:45.807Z,40
2018-05-08T09:15:46.178Z,40
2018-05-08T09:16:45.922Z,40
2018-05-08T09:17:45.991Z,40
2018-05-08T09:18:46.144Z,41
2018-05-08T09:19:46.050Z,41
2018-05-08T09:20:45.994Z,41
2018-05-08T09:21:46.009Z,40
2018-05-08T09:22:45.906Z,40
2018-05-08T09:23:47.216Z,40
2018-05-08T09:24:45.907Z,40
2018-05-08T09:25:45.968Z,40
2018-05-08T09:26:46.155Z,42
2018-05-08T09:27:46.039Z,42
2018-05-08T09:28:45.882Z,39
2018-05-08T09:29:45.921Z,39
2018-05-08T09:30:46.171Z,39
2018-05-08T09:31:45.966Z,39
2018-05-08T09:32:46.180Z,39
2018-05-08T09:33:45.956Z,39
2018-05-08T09:34:46.007Z,39
2018-05-08T09:35:46.228Z,39
2018-05-08T09:36:45.885Z,39
2018-05-08T09:37:46.307Z,39
2018-05-08T09:38:45.858Z,39
2018-05-08T09:39:45.961Z,39
2018-05-08T09:40:45.953Z,39
2018-05-08T09:41:45.964Z,40
2018-05-08T09:42:46.258Z,40
2018-05-08T09:43:45.969Z,40
2018-05-08T09:44:46.150Z,40
2018-05-08T09:45:45.996Z,40
2018-05-08T09:46:46.282Z,40
2018-05-08T09:47:46.106Z,40
2018-05-08T09:48:46.611Z,40
2018-05-08T09:49:46.009Z,39
2018-05-08T09:50:45.970Z,39
2018-05-08T09:51:45.960Z,40
2018-05-08T09:52:46.017Z,40
2018-05-08T09:53:46.024Z,40
2018-05-08T09:54:46.223Z,40
2018-05-08T09:55:45.920Z,40
2018-05-08T09:56:45.943Z,40
2018-05-08T09:57:46.601Z,40
2018-05-08T09:58:45.941Z,40
2018-05-08T09:59:46.033Z,39
2018-05-08T10:00:46.061Z,39
2018-05-08T10:01:46.071Z,39
2018-05-08T10:02:46.316Z,40
2018-05-08T10:03:45.998Z,40
2018-05-08T10:04:45.966Z,38
2018-05-08T10:05:46.321Z,38
2018-05-08T10:06:46.134Z,38
2018-05-08T10:07:46.028Z,38
2018-05-08T10:08:45.983Z,38
2018-05-08T10:09:46.036Z,39
2018-05-08T10:10:45.981Z,39
2018-05-08T10:11:46.041Z,39
2018-05-08T10:12:46.361Z,38
2018-05-08T10:13:46.042Z,38
2018-05-08T10:14:46.395Z,38
2018-05-08T10:15:46.380Z,38
2018-05-08T10:16:45.969Z,38
2018-05-08T10:17:46.028Z,38
2018-05-08T10:18:46.000Z,38
2018-05-08T10:19:46.091Z,38
2018-05-08T10:20:46.186Z,38
2018-05-08T10:21:46.089Z,38
2018-05-08T10:22:46.407Z,38
2018-05-08T10:23:46.042Z,38
2018-05-08T10:24:46.094Z,38
2018-05-08T10:25:46.073Z,38
2018-05-08T10:26:46.164Z,38
2018-05-08T10:27:46.064Z,38
2018-05-08T10:28:46.167Z,38
2018-05-08T10:29:46.111Z,37
2018-05-08T10:30:46.157Z,37
2018-05-08T10:31:46.367Z,37
2018-05-08T10:32:46.011Z,35
2018-05-08T10:33:46.023Z,35
2018-05-08T10:34:46.455Z,35
2018-05-08T10:35:46.332Z,35
2018-05-08T10:36:46.137Z,35
2018-05-08T10:37:46.069Z,39
2018-05-08T10:38:46.419Z,39
2018-05-08T10:39:46.051Z,39
2018-05-08T10:40:46.041Z,37
2018-05-08T10:41:46.126Z,37
2018-05-08T10:42:46.082Z,38
2018-05-08T10:43:46.097Z,38
2018-05-08T10:44:46.144Z,38
2018-05-08T10:45:46.381Z,36
2018-05-08T10:46:46.048Z,36
2018-05-08T10:47:46.117Z,36
2018-05-08T10:48:46.284Z,36
2018-05-08T10:49:46.031Z,36
2018-05-08T10:50:46.072Z,37
2018-05-08T10:51:46.065Z,37
2018-05-08T10:52:46.136Z,35
2018-05-08T10:53:46.519Z,35
2018-05-08T10:54:46.425Z,35
2018-05-08T10:55:46.116Z,35
2018-05-08T10:56:46.334Z,35
2018-05-08T10:57:46.392Z,35
2018-05-08T10:58:46.185Z,35
2018-05-08T10:59:47.043Z,35
2018-05-08T11:00:46.038Z,38
2018-05-08T11:01:46.162Z,38
2018-05-08T11:02:46.081Z,38
2018-05-08T11:03:46.193Z,35
2018-05-08T11:04:46.408Z,35
2018-05-08T11:05:46.165Z,34
2018-05-08T11:06:46.134Z,34
2018-05-08T11:07:46.400Z,34
2018-05-08T11:08:46.111Z,34
2018-05-08T11:09:46.101Z,34
2018-05-08T11:10:46.140Z,35
2018-05-08T11:11:46.380Z,35
2018-05-08T11:12:46.048Z,35
2018-05-08T11:13:46.095Z,35
2018-05-08T11:14:46.433Z,35
2018-05-08T11:15:46.151Z,35
2018-05-08T11:16:46.063Z,35
2018-05-08T11:17:46.137Z,35
2018-05-08T11:18:46.236Z,34
2018-05-08T11:19:46.288Z,34
2018-05-08T11:20:46.203Z,37
2018-05-08T11:21:46.176Z,37
2018-05-08T11:22:46.204Z,37
2018-05-08T11:23:46.444Z,35
2018-05-08T11:24:46.142Z,35
2018-05-08T11:25:46.288Z,34
2018-05-08T11:26:46.297Z,34
2018-05-08T11:27:46.433Z,34
2018-05-08T11:28:46.219Z,34
2018-05-08T11:29:46.235Z,34
2018-05-08T11:30:46.131Z,34
2018-05-08T11:31:46.174Z,34
2018-05-08T11:32:46.373Z,34
2018-05-08T11:33:46.113Z,34
2018-05-08T11:34:46.262Z,34
2018-05-08T11:35:46.178Z,34
2018-05-08T11:36:46.466Z,34
2018-05-08T11:37:46.118Z,34
2018-05-08T11:38:46.512Z,33
2018-05-08T11:39:46.176Z,33
2018-05-08T11:40:46.138Z,33
2018-05-08T11:41:46.426Z,34
2018-05-08T11:42:46.390Z,34
2018-05-08T11:43:46.408Z,33
2018-05-08T11:44:46.539Z,33
2018-05-08T11:45:46.172Z,33
2018-05-08T11:46:46.069Z,33
2018-05-08T11:47:46.109Z,33
2018-05-08T11:48:46.127Z,32
2018-05-08T11:49:46.198Z,32
2018-05-08T11:50:46.202Z,32
2018-05-08T11:51:46.825Z,33
2018-05-08T11:52:46.217Z,33
2018-05-08T11:53:46.142Z,32
2018-05-08T11:54:46.431Z,32
2018-05-08T11:55:46.637Z,32
2018-05-08T11:56:46.492Z,32
2018-05-08T11:57:46.451Z,32
2018-05-08T11:58:46.262Z,32
2018-05-08T11:59:46.149Z,32
2018-05-08T12:00:46.287Z,32
2018-05-08T12:01:46.218Z,31
2018-05-08T12:02:46.326Z,31
2018-05-08T12:03:46.180Z,31
2018-05-08T12:04:46.168Z,32
2018-05-08T12:05:46.139Z,32
2018-05-08T12:06:46.166Z,32
2018-05-08T12:07:46.168Z,32
2018-05-08T12:08:46.471Z,32
2018-05-08T12:09:46.166Z,32
2018-05-08T12:10:46.164Z,32
2018-05-08T12:11:46.173Z,32
2018-05-08T12:12:46.257Z,32
2018-05-08T12:13:46.232Z,32
2018-05-08T12:14:46.571Z,33
2018-05-08T12:15:46.541Z,33
2018-05-08T12:16:46.236Z,32
2018-05-08T12:17:46.232Z,32
2018-05-08T12:18:46.180Z,32
2018-05-08T12:19:46.652Z,33
2018-05-08T12:20:46.488Z,33
2018-05-08T12:21:46.289Z,31
2018-05-08T12:22:46.494Z,31
2018-05-08T12:23:46.474Z,31
2018-05-08T12:24:46.383Z,31
2018-05-08T12:25:46.194Z,31
2018-05-08T12:26:46.202Z,32
2018-05-08T12:27:46.191Z,32
2018-05-08T12:28:46.199Z,32
2018-05-08T12:29:47.063Z,31
2018-05-08T12:30:46.247Z,31
2018-05-08T12:31:46.151Z,32
2018-05-08T12:32:46.205Z,32
2018-05-08T12:33:46.185Z,32
2018-05-08T12:34:46.192Z,31
2018-05-08T12:35:46.238Z,31
2018-05-08T12:36:46.245Z,31
2018-05-08T12:37:46.194Z,31
2018-05-08T12:38:46.237Z,31
2018-05-08T12:39:46.656Z,31
2018-05-08T12:40:46.234Z,31
2018-05-08T12:41:46.383Z,31
2018-05-08T12:42:46.321Z,30
2018-05-08T12:43:46.352Z,30
2018-05-08T12:44:46.337Z,30
2018-05-08T12:45:46.402Z,30
2018-05-08T12:46:46.517Z,30
2018-05-08T12:47:46.357Z,30
2018-05-08T12:48:46.370Z,30
2018-05-08T12:49:46.780Z,30
2018-05-08T12:50:46.315Z,30
2018-05-08T12:51:46.261Z,30
2018-05-08T12:52:46.608Z,30
2018-05-08T12:53:46.508Z,30
2018-05-08T12:54:46.349Z,30
2018-05-08T12:55:46.564Z,30
2018-05-08T12:56:46.632Z,30
2018-05-08T12:57:46.285Z,30
2018-05-08T12:58:46.604Z,30
2018-05-08T12:59:46.660Z,28
2018-05-08T13:00:46.745Z,28
2018-05-08T13:01:46.633Z,28
2018-05-08T13:02:46.314Z,28
2018-05-08T13:03:46.315Z,28
2018-05-08T13:04:46.424Z,28
2018-05-08T13:05:46.580Z,29
2018-05-08T13:06:46.608Z,29
2018-05-08T13:07:46.321Z,29
2018-05-08T13:08:46.543Z,29
2018-05-08T13:09:46.360Z,29
2018-05-08T13:10:46.627Z,28
2018-05-08T13:11:46.392Z,28
2018-05-08T13:12:46.667Z,28
2018-05-08T13:13:46.926Z,28
2018-05-08T13:14:46.659Z,28
2018-05-08T13:15:46.339Z,27
2018-05-08T13:16:46.630Z,27
2018-05-08T13:17:46.289Z,27
2018-05-08T13:18:46.660Z,27
2018-05-08T13:19:46.654Z,27
2018-05-08T13:20:46.620Z,28
2018-05-08T13:21:46.648Z,28
2018-05-08T13:22:46.371Z,27
2018-05-08T13:23:46.446Z,27
2018-05-08T13:24:46.353Z,27
2018-05-08T13:25:46.398Z,26
2018-05-08T13:26:46.426Z,26
2018-05-08T13:27:46.375Z,28
2018-05-08T13:28:46.698Z,28
2018-05-08T13:29:46.291Z,28
2018-05-08T13:30:46.344Z,27
2018-05-08T13:31:46.512Z,27
2018-05-08T13:32:46.921Z,29
2018-05-08T13:33:46.332Z,29
2018-05-08T13:34:46.359Z,29
2018-05-08T13:35:46.349Z,29
2018-05-08T13:36:47.403Z,29
2018-05-08T13:37:46.909Z,29
2018-05-08T13:38:46.281Z,29
2018-05-08T13:39:46.293Z,29
2018-05-08T13:40:46.365Z,29
2018-05-08T13:41:46.396Z,29
2018-05-08T13:42:46.367Z,29
2018-05-08T13:43:46.406Z,30
2018-05-08T13:44:46.720Z,30
2018-05-08T13:45:46.470Z,30
2018-05-08T13:46:46.990Z,30
2018-05-08T13:47:46.816Z,30
2018-05-08T13:48:47.294Z,30
2018-05-08T13:49:46.702Z,30
2018-05-08T13:50:48.451Z,29
2018-05-08T13:51:47.161Z,29
2018-05-08T13:52:47.100Z,29
2018-05-08T13:53:46.938Z,29
2018-05-08T13:54:47.329Z,29
2018-05-08T13:55:46.501Z,30
2018-05-08T13:56:47.485Z,30
2018-05-08T13:57:47.187Z,30
2018-05-08T13:58:47.266Z,30
2018-05-08T13:59:47.366Z,30
2018-05-08T14:00:47.186Z,30
2018-05-08T14:01:46.821Z,30
2018-05-08T14:02:46.510Z,30
2018-05-08T14:03:47.145Z,30
2018-05-08T14:04:47.046Z,30
2018-05-08T14:05:46.541Z,30
2018-05-08T14:06:46.696Z,31
2018-05-08T14:07:46.928Z,31
2018-05-08T14:08:47.313Z,30
2018-05-08T14:09:46.556Z,30
2018-05-08T14:10:48.015Z,30
2018-05-08T14:11:47.113Z,31
2018-05-08T14:12:46.905Z,31
2018-05-08T14:13:47.384Z,31
2018-05-08T14:14:47.151Z,31
2018-05-08T14:15:48.047Z,31